21°C Temp
-4°C Dewpoint
% Humidity
Temperature
24 KM/H
15 MPH
13 KTS
300°
West North
West

Wind Speed
Clear
Conditions
Pressure 1018.92 (hPa) - 30.09 (in)
Visibility 6.2 (mi) - 10.0 (km)

Current Conditions
EPKT
Location 6km (3.2mi)
Metar :EPKT 091330Z 30013KT 270V330 CAVOK 21/M04 Q1019
Thu 9th April 15:30 pm

Airport
  Metar Aviation API Data Provided by https://www.checkwx.com/ CSS/SVG/PHP scripts by weather34.com © 2015-2020